createdAt,value
2022-09-12T00:03:01.796Z,13.64
2022-09-12T00:08:04.728Z,13.62
2022-09-12T00:13:07.470Z,13.47
2022-09-12T00:18:17.722Z,13.44
2022-09-12T00:23:20.498Z,13.49
2022-09-12T00:28:23.207Z,13.40
2022-09-12T00:33:27.248Z,13.34
2022-09-12T00:38:30.066Z,13.23
2022-09-12T00:43:38.128Z,13.22
2022-09-12T00:48:44.038Z,13.13
2022-09-12T00:53:47.883Z,13.16
2022-09-12T00:58:53.505Z,13.05
2022-09-12T01:03:57.481Z,13.06
2022-09-12T01:09:03.527Z,12.96
2022-09-12T01:14:06.471Z,12.70
2022-09-12T01:19:39.542Z,12.71
2022-09-12T01:24:52.606Z,12.75
2022-09-12T01:30:21.785Z,12.88
2022-09-12T01:35:31.547Z,12.87
2022-09-12T01:40:41.375Z,12.87
2022-09-12T01:45:47.226Z,12.85
2022-09-12T01:50:54.025Z,12.75
2022-09-12T01:56:01.765Z,12.79
2022-09-12T02:01:08.489Z,12.58
2022-09-12T02:06:17.601Z,12.60
2022-09-12T02:11:20.886Z,12.59
2022-09-12T02:16:27.346Z,12.46
2022-09-12T02:21:33.121Z,12.56
2022-09-12T02:26:38.809Z,12.46
2022-09-12T02:31:46.045Z,12.45
2022-09-12T02:36:56.104Z,12.40
2022-09-12T02:42:00.858Z,12.36
2022-09-12T02:47:07.455Z,12.28
2022-09-12T02:52:11.475Z,12.30
2022-09-12T02:57:22.405Z,12.16
2022-09-12T03:02:33.717Z,12.15
2022-09-12T03:07:50.507Z,12.10
2022-09-12T03:12:54.180Z,12.02
2022-09-12T03:18:04.677Z,12.00
2022-09-12T03:23:15.626Z,11.92
2022-09-12T03:28:19.809Z,11.94
2022-09-12T03:33:23.731Z,11.87
2022-09-12T03:38:27.702Z,11.95
2022-09-12T03:43:30.405Z,11.92
2022-09-12T03:48:33.049Z,11.90
2022-09-12T03:53:37.155Z,11.83
2022-09-12T03:58:39.809Z,11.84
2022-09-12T04:03:42.848Z,11.79
2022-09-12T04:08:52.484Z,11.70
2022-09-12T04:13:55.287Z,11.73
2022-09-12T04:18:58.061Z,11.67
2022-09-12T04:24:02.375Z,11.55
2022-09-12T04:29:05.027Z,11.66
2022-09-12T04:34:07.883Z,11.58
2022-09-12T04:39:12.745Z,11.61
2022-09-12T04:44:15.985Z,11.61
2022-09-12T04:49:19.293Z,11.43
2022-09-12T04:54:23.273Z,11.34
2022-09-12T04:59:26.433Z,11.50
2022-09-12T05:04:29.223Z,11.41
2022-09-12T05:09:33.185Z,11.45
2022-09-12T05:14:35.796Z,11.51
2022-09-12T05:19:39.092Z,11.56
2022-09-12T05:24:49.845Z,11.45
2022-09-12T05:29:53.437Z,11.52
2022-09-12T05:34:56.173Z,11.62
2022-09-12T05:40:00.253Z,11.57
2022-09-12T05:45:02.971Z,11.64
2022-09-12T05:50:10.716Z,11.67
2022-09-12T05:55:14.655Z,11.79
2022-09-12T06:00:18.928Z,11.91
2022-09-12T06:05:21.649Z,12.06
2022-09-12T06:10:26.264Z,12.20
2022-09-12T06:15:28.857Z,12.25
2022-09-12T06:20:31.443Z,12.34
2022-09-12T06:25:35.415Z,12.46
2022-09-12T06:30:38.004Z,12.68
2022-09-12T06:35:40.900Z,12.74
2022-09-12T06:40:45.317Z,12.94
2022-09-12T06:45:50.273Z,13.04
2022-09-12T06:51:02.033Z,13.22
2022-09-12T06:56:08.488Z,13.46
2022-09-12T07:01:11.574Z,13.55
2022-09-12T07:06:15.817Z,13.71
2022-09-12T07:11:21.106Z,13.88
2022-09-12T07:16:24.572Z,14.20
2022-09-12T07:21:27.666Z,14.24
2022-09-12T07:26:32.365Z,14.60
2022-09-12T07:31:34.952Z,14.77
2022-09-12T07:36:39.074Z,14.91
2022-09-12T07:41:43.008Z,15.19
2022-09-12T07:46:45.597Z,15.48
2022-09-12T07:51:48.183Z,15.45
2022-09-12T07:56:52.134Z,15.75
2022-09-12T08:01:55.177Z,15.80
2022-09-12T08:06:57.781Z,15.99
2022-09-12T08:12:01.921Z,16.09
2022-09-12T08:17:04.553Z,16.26
2022-09-12T08:22:07.128Z,16.49
2022-09-12T08:27:11.553Z,16.59
2022-09-12T08:32:14.178Z,16.60
2022-09-12T08:37:16.775Z,16.80
2022-09-12T08:42:27.386Z,16.98
2022-09-12T08:47:32.354Z,17.10
2022-09-12T08:52:39.195Z,17.26
2022-09-12T08:57:43.131Z,17.39
2022-09-12T09:03:01.670Z,17.58
2022-09-12T09:08:26.822Z,17.80
2022-09-12T09:13:55.906Z,17.84
2022-09-12T09:18:59.662Z,17.99
2022-09-12T09:24:05.861Z,18.19
2022-09-12T09:29:15.280Z,18.37
2022-09-12T09:34:21.553Z,18.47
2022-09-12T09:39:35.473Z,18.58
2022-09-12T09:44:39.741Z,18.65
2022-09-12T09:49:42.749Z,18.91
2022-09-12T09:54:49.440Z,18.89
2022-09-12T09:59:53.372Z,19.21
2022-09-12T10:04:58.284Z,19.46
2022-09-12T10:10:16.277Z,19.39
2022-09-12T10:15:21.620Z,19.71
2022-09-12T10:20:33.283Z,19.65
2022-09-12T10:25:36.088Z,19.69
2022-09-12T10:30:40.211Z,19.62
2022-09-12T10:35:47.209Z,19.77
2022-09-12T10:40:57.053Z,20.14
2022-09-12T10:46:38.585Z,20.11
2022-09-12T10:51:42.955Z,20.35
2022-09-12T10:56:56.499Z,20.23
2022-09-12T11:02:01.663Z,20.68
2022-09-12T11:07:24.993Z,20.68
2022-09-12T11:12:32.383Z,20.96
2022-09-12T11:17:47.420Z,21.35
2022-09-12T11:23:22.548Z,21.48
2022-09-12T11:28:37.568Z,21.49
2022-09-12T11:33:43.472Z,21.68
2022-09-12T11:38:52.531Z,21.78
2022-09-12T11:44:01.169Z,22.20
2022-09-12T11:49:08.188Z,21.93
2022-09-12T11:54:15.436Z,21.58
2022-09-12T11:59:30.071Z,22.05
2022-09-12T12:04:39.161Z,22.32
2022-09-12T12:09:48.100Z,22.34
2022-09-12T12:14:55.617Z,22.77
2022-09-12T12:20:04.941Z,23.10
2022-09-12T12:25:29.607Z,23.08
2022-09-12T12:31:02.286Z,23.38
2022-09-12T12:36:07.219Z,22.86
2022-09-12T12:41:44.576Z,23.35
2022-09-12T12:47:09.645Z,23.49
2022-09-12T12:52:17.834Z,23.27
2022-09-12T12:57:32.415Z,23.58
2022-09-12T13:02:40.329Z,23.81
2022-09-12T13:07:44.285Z,23.68
2022-09-12T13:12:48.999Z,23.56
2022-09-12T13:17:53.565Z,23.70
2022-09-12T13:22:57.145Z,23.25
2022-09-12T13:28:06.110Z,23.23
2022-09-12T13:33:19.687Z,23.45
2022-09-12T13:38:29.199Z,23.65
2022-09-12T13:49:16.465Z,23.45
2022-09-12T13:54:24.438Z,23.67
2022-09-12T13:59:27.351Z,23.67
2022-09-12T14:04:49.264Z,23.67
2022-09-12T14:09:55.307Z,23.39
2022-09-12T14:14:58.882Z,23.65
2022-09-12T14:20:04.932Z,23.69
2022-09-12T14:25:10.240Z,23.63
2022-09-12T14:30:22.712Z,23.48
2022-09-12T14:35:26.864Z,23.55
2022-09-12T14:40:36.312Z,23.48
2022-09-12T14:45:42.147Z,23.49
2022-09-12T14:50:50.101Z,23.35
2022-09-12T14:56:07.725Z,23.42
2022-09-12T15:01:26.480Z,23.40
2022-09-12T15:06:32.971Z,23.23
2022-09-12T15:11:35.714Z,23.17
2022-09-12T15:16:38.841Z,23.11
2022-09-12T15:21:42.890Z,22.92
2022-09-12T15:26:46.517Z,22.84
2022-09-12T15:31:51.935Z,22.82
2022-09-12T15:36:56.087Z,22.86
2022-09-12T15:42:12.315Z,22.83
2022-09-12T15:47:15.345Z,22.80
2022-09-12T15:52:22.780Z,22.88
2022-09-12T15:57:31.802Z,22.75
2022-09-12T16:02:44.749Z,22.85
2022-09-12T16:07:49.924Z,22.74
2022-09-12T16:12:55.644Z,22.73
2022-09-12T16:18:06.372Z,22.78
2022-09-12T16:23:13.943Z,22.61
2022-09-12T16:28:16.875Z,22.53
2022-09-12T16:33:19.537Z,22.39
2022-09-12T16:38:23.713Z,22.33
2022-09-12T16:43:26.361Z,22.23
2022-09-12T16:48:30.136Z,22.19
2022-09-12T16:53:35.226Z,22.12
2022-09-12T16:58:41.940Z,22.01
2022-09-12T17:03:45.104Z,21.93
2022-09-12T17:08:50.695Z,21.80
2022-09-12T17:14:10.414Z,21.74
2022-09-12T17:19:15.952Z,21.68
2022-09-12T17:24:20.746Z,21.51
2022-09-12T17:29:23.516Z,21.47
2022-09-12T17:34:26.277Z,21.37
2022-09-12T17:39:30.524Z,21.23
2022-09-12T17:44:34.405Z,21.06
2022-09-12T17:49:37.729Z,20.94
2022-09-12T17:54:41.863Z,20.85
2022-09-12T17:59:44.526Z,20.70
2022-09-12T18:04:48.394Z,20.57
2022-09-12T18:09:53.007Z,20.43
2022-09-12T18:14:55.709Z,20.25
2022-09-12T18:19:58.420Z,20.20
2022-09-12T18:25:02.448Z,20.08
2022-09-12T18:30:20.762Z,19.95
2022-09-12T18:35:25.529Z,19.78
2022-09-12T18:40:29.680Z,19.73
2022-09-12T18:45:32.589Z,19.66
2022-09-12T18:50:35.230Z,19.41
2022-09-12T18:55:42.272Z,19.32
2022-09-12T19:00:47.969Z,19.32
2022-09-12T19:05:50.664Z,19.30
2022-09-12T19:10:58.023Z,19.20
2022-09-12T19:16:01.327Z,19.09
2022-09-12T19:21:04.557Z,19.03
2022-09-12T19:26:10.753Z,18.98
2022-09-12T19:31:14.666Z,18.85
2022-09-12T19:36:41.207Z,18.71
2022-09-12T19:41:43.609Z,18.66
2022-09-12T19:46:46.309Z,18.53
2022-09-12T19:51:48.981Z,18.47
2022-09-12T19:56:52.925Z,18.39
2022-09-12T20:01:55.639Z,18.31
2022-09-12T20:06:58.335Z,18.15
2022-09-12T20:12:02.768Z,18.03
2022-09-12T20:17:05.497Z,18.02
2022-09-12T20:22:08.350Z,17.96
2022-09-12T20:27:12.394Z,17.97
2022-09-12T20:32:15.064Z,17.85
2022-09-12T20:37:17.718Z,17.81
2022-09-12T20:42:21.779Z,17.84
2022-09-12T20:47:24.486Z,17.69
2022-09-12T20:52:27.165Z,17.58
2022-09-12T20:57:31.135Z,17.60
2022-09-12T21:02:33.945Z,17.66
2022-09-12T21:07:36.686Z,17.70
2022-09-12T21:12:40.717Z,17.70
2022-09-12T21:17:43.354Z,17.64
2022-09-12T21:22:46.051Z,17.64
2022-09-12T21:27:50.190Z,17.59
2022-09-12T21:32:52.873Z,17.61
2022-09-12T21:37:55.502Z,17.54
2022-09-12T21:42:59.519Z,17.43
2022-09-12T21:48:02.508Z,17.34
2022-09-12T21:53:05.125Z,17.41
2022-09-12T21:58:09.188Z,17.32
2022-09-12T22:03:12.614Z,17.29
2022-09-12T22:08:15.264Z,17.27
2022-09-12T22:13:19.297Z,17.16
2022-09-12T22:18:22.013Z,17.08
2022-09-12T22:23:42.043Z,17.00
2022-09-12T22:28:47.232Z,16.97
2022-09-12T22:33:50.750Z,16.87
2022-09-12T22:38:53.379Z,16.81
2022-09-12T22:43:57.564Z,16.84
2022-09-12T22:49:00.312Z,16.84
2022-09-12T22:54:03.510Z,16.89
2022-09-12T22:59:07.706Z,16.91
2022-09-12T23:04:11.940Z,16.80
2022-09-12T23:09:14.623Z,16.75
2022-09-12T23:14:18.601Z,16.76
2022-09-12T23:19:21.192Z,16.73
2022-09-12T23:24:23.788Z,16.63
2022-09-12T23:29:28.264Z,16.52
2022-09-12T23:34:30.935Z,16.44
2022-09-12T23:39:34.067Z,16.41
2022-09-12T23:44:37.970Z,16.34
2022-09-12T23:49:40.567Z,16.29
2022-09-12T23:54:43.153Z,16.21
2022-09-12T23:59:47.124Z,16.19
